createdAt,value
2018-05-11T00:00:58.168Z,12.80
2018-05-11T00:03:26.491Z,12.80
2018-05-11T00:05:54.796Z,12.70
2018-05-11T00:08:23.115Z,12.60
2018-05-11T00:10:51.412Z,12.60
2018-05-11T00:13:19.742Z,12.60
2018-05-11T00:15:48.055Z,12.60
2018-05-11T00:18:16.395Z,12.60
2018-05-11T00:20:44.709Z,12.60
2018-05-11T00:23:13.039Z,12.50
2018-05-11T00:25:41.343Z,12.50
2018-05-11T00:28:09.670Z,12.50
2018-05-11T00:30:37.975Z,12.40
2018-05-11T00:33:06.304Z,12.50
2018-05-11T00:35:34.606Z,12.50
2018-05-11T00:38:02.931Z,12.50
2018-05-11T00:40:31.231Z,12.50
2018-05-11T00:42:59.560Z,12.40
2018-05-11T00:45:27.863Z,12.40
2018-05-11T00:47:56.187Z,12.30
2018-05-11T00:50:24.496Z,12.30
2018-05-11T00:52:52.818Z,12.30
2018-05-11T00:55:33.063Z,12.30
2018-05-11T00:58:01.395Z,12.30
2018-05-11T01:00:29.700Z,12.30
2018-05-11T01:02:58.027Z,12.20
2018-05-11T01:05:25.564Z,12.20
2018-05-11T01:07:53.892Z,12.10
2018-05-11T01:10:22.196Z,12.10
2018-05-11T01:12:50.542Z,12.10
2018-05-11T01:15:18.867Z,12.00
2018-05-11T01:17:47.163Z,12.00
2018-05-11T01:20:15.491Z,11.90
2018-05-11T01:22:43.795Z,11.80
2018-05-11T01:25:12.126Z,11.70
2018-05-11T01:27:40.434Z,11.70
2018-05-11T01:30:07.996Z,11.60
2018-05-11T01:32:36.303Z,11.50
2018-05-11T01:35:04.643Z,11.40
2018-05-11T01:37:32.950Z,11.30
2018-05-11T01:40:01.287Z,11.30
2018-05-11T01:42:29.593Z,11.20
2018-05-11T01:44:58.779Z,11.20
2018-05-11T01:47:27.086Z,11.10
2018-05-11T01:49:55.410Z,11.00
2018-05-11T01:52:23.707Z,10.90
2018-05-11T01:54:52.019Z,10.80
2018-05-11T01:57:20.328Z,10.80
2018-05-11T01:59:48.659Z,10.70
2018-05-11T02:02:16.193Z,10.70
2018-05-11T02:04:44.513Z,10.60
2018-05-11T02:07:12.806Z,10.50
2018-05-11T02:09:41.122Z,10.40
2018-05-11T02:12:09.423Z,10.30
2018-05-11T02:14:37.757Z,10.20
2018-05-11T02:17:06.059Z,10.10
2018-05-11T02:19:34.382Z,10.10
2018-05-11T02:22:02.684Z,10.10
2018-05-11T02:24:31.016Z,10.10
2018-05-11T02:26:59.310Z,10.10
2018-05-11T02:29:27.627Z,10.10
2018-05-11T02:31:55.939Z,10.10
2018-05-11T02:34:24.291Z,10.10
2018-05-11T02:36:52.595Z,10.10
2018-05-11T02:39:20.921Z,10.10
2018-05-11T02:41:49.222Z,10.10
2018-05-11T02:44:17.547Z,10.00
2018-05-11T02:46:45.852Z,10.00
2018-05-11T02:49:14.179Z,9.90
2018-05-11T02:51:42.479Z,9.90
2018-05-11T02:54:10.790Z,9.80
2018-05-11T02:56:39.095Z,9.80
2018-05-11T02:59:06.635Z,9.80
2018-05-11T03:01:34.932Z,9.80
2018-05-11T03:04:03.255Z,9.90
2018-05-11T03:06:31.555Z,9.90
2018-05-11T03:08:59.882Z,9.90
2018-05-11T03:11:28.179Z,10.00
2018-05-11T03:13:56.506Z,10.00
2018-05-11T03:16:24.816Z,10.00
2018-05-11T03:18:53.118Z,10.00
2018-05-11T03:21:21.448Z,10.10
2018-05-11T03:23:49.748Z,10.10
2018-05-11T03:26:18.067Z,10.10
2018-05-11T03:28:46.363Z,10.10
2018-05-11T03:31:14.687Z,10.00
2018-05-11T03:33:42.992Z,10.00
2018-05-11T03:36:11.323Z,10.00
2018-05-11T03:38:39.632Z,10.00
2018-05-11T03:41:07.958Z,10.00
2018-05-11T03:43:36.255Z,10.00
2018-05-11T03:46:04.570Z,10.00
2018-05-11T03:48:32.871Z,10.00
2018-05-11T03:51:01.240Z,10.00
2018-05-11T03:53:29.526Z,10.00
2018-05-11T03:55:57.851Z,10.00
2018-05-11T03:58:26.151Z,9.90
2018-05-11T04:00:54.475Z,9.80
2018-05-11T04:03:48.455Z,9.90
2018-05-11T04:06:28.606Z,9.90
2018-05-11T04:08:56.902Z,9.90
2018-05-11T04:11:25.229Z,9.90
2018-05-11T04:13:53.523Z,9.80
2018-05-11T04:16:21.836Z,9.80
2018-05-11T04:18:50.135Z,9.90
2018-05-11T04:21:18.450Z,9.90
2018-05-11T04:23:46.748Z,10.00
2018-05-11T04:26:15.066Z,9.90
2018-05-11T04:28:43.367Z,10.00
2018-05-11T04:31:11.691Z,10.00
2018-05-11T04:33:40.007Z,10.10
2018-05-11T04:36:08.339Z,10.10
2018-05-11T04:38:36.635Z,10.20
2018-05-11T04:41:04.966Z,10.20
2018-05-11T04:43:33.271Z,10.20
2018-05-11T04:46:01.591Z,10.20
2018-05-11T04:48:29.890Z,10.20
2018-05-11T04:50:58.211Z,10.30
2018-05-11T04:53:26.519Z,10.30
2018-05-11T04:55:54.856Z,10.30
2018-05-11T04:58:23.151Z,10.40
2018-05-11T05:00:51.472Z,10.40
2018-05-11T05:03:19.768Z,10.40
2018-05-11T05:05:48.087Z,10.50
2018-05-11T05:08:16.383Z,10.50
2018-05-11T05:10:44.710Z,10.50
2018-05-11T05:13:13.002Z,10.60
2018-05-11T05:15:41.327Z,10.60
2018-05-11T05:18:09.623Z,10.60
2018-05-11T05:20:37.943Z,10.60
2018-05-11T05:23:06.250Z,10.70
2018-05-11T05:25:34.571Z,10.70
2018-05-11T05:28:02.874Z,10.70
2018-05-11T05:30:31.271Z,10.80
2018-05-11T05:32:59.605Z,10.80
2018-05-11T05:35:27.937Z,10.90
2018-05-11T05:37:56.252Z,10.90
2018-05-11T05:40:24.575Z,10.90
2018-05-11T05:42:52.878Z,10.90
2018-05-11T05:45:21.179Z,11.00
2018-05-11T05:47:49.499Z,11.00
2018-05-11T05:50:17.796Z,11.00
2018-05-11T05:52:46.119Z,11.00
2018-05-11T05:55:14.423Z,11.10
2018-05-11T05:57:42.751Z,11.20
2018-05-11T06:00:11.047Z,11.30
2018-05-11T06:02:39.381Z,11.50
2018-05-11T06:05:07.682Z,11.50
2018-05-11T06:07:36.009Z,11.60
2018-05-11T06:10:04.306Z,11.70
2018-05-11T06:12:32.624Z,12.20
2018-05-11T06:15:00.931Z,12.70
2018-05-11T06:17:28.512Z,12.70
2018-05-11T06:19:56.820Z,13.40
2018-05-11T06:22:25.144Z,13.70
2018-05-11T06:24:53.473Z,13.70
2018-05-11T06:27:21.864Z,14.00
2018-05-11T06:29:50.107Z,14.10
2018-05-11T06:32:18.448Z,14.20
2018-05-11T06:34:46.744Z,14.20
2018-05-11T06:37:15.071Z,14.10
2018-05-11T06:39:43.371Z,14.30
2018-05-11T06:42:11.692Z,14.30
2018-05-11T06:44:40.006Z,14.20
2018-05-11T06:47:08.343Z,14.10
2018-05-11T06:49:36.648Z,13.90
2018-05-11T06:52:04.967Z,13.60
2018-05-11T06:54:33.272Z,13.50
2018-05-11T06:57:01.594Z,13.60
2018-05-11T06:59:29.158Z,13.50
2018-05-11T07:01:57.482Z,13.60
2018-05-11T07:04:25.790Z,13.30
2018-05-11T07:06:54.110Z,13.30
2018-05-11T07:09:22.415Z,13.40
2018-05-11T07:11:50.746Z,13.70
2018-05-11T07:14:19.044Z,14.00
2018-05-11T07:16:47.376Z,14.30
2018-05-11T07:19:15.677Z,14.30
2018-05-11T07:21:44.003Z,14.30
2018-05-11T07:24:12.308Z,14.50
2018-05-11T07:26:40.628Z,14.70
2018-05-11T07:29:08.929Z,15.00
2018-05-11T07:31:37.255Z,15.40
2018-05-11T07:34:05.563Z,15.50
2018-05-11T07:36:33.904Z,15.60
2018-05-11T07:39:02.200Z,15.70
2018-05-11T07:41:30.531Z,15.70
2018-05-11T07:43:58.827Z,15.80
2018-05-11T07:46:27.147Z,15.90
2018-05-11T07:48:55.463Z,16.10
2018-05-11T07:51:23.770Z,16.40
2018-05-11T07:53:52.091Z,16.80
2018-05-11T07:56:20.383Z,16.90
2018-05-11T07:58:48.703Z,17.00
2018-05-11T08:01:16.239Z,17.00
2018-05-11T08:03:44.556Z,17.20
2018-05-11T08:06:12.851Z,17.30
2018-05-11T08:08:41.168Z,17.40
2018-05-11T08:11:09.472Z,17.40
2018-05-11T08:13:37.795Z,17.40
2018-05-11T08:16:06.085Z,17.30
2018-05-11T08:18:34.407Z,17.30
2018-05-11T08:21:02.703Z,17.40
2018-05-11T08:23:31.032Z,17.80
2018-05-11T08:25:59.331Z,18.30
2018-05-11T08:28:27.650Z,18.70
2018-05-11T08:30:55.951Z,18.80
2018-05-11T08:33:24.279Z,19.10
2018-05-11T08:35:52.643Z,19.40
2018-05-11T08:38:20.906Z,19.30
2018-05-11T08:40:48.435Z,19.30
2018-05-11T08:43:16.763Z,19.00
2018-05-11T08:45:45.059Z,19.00
2018-05-11T08:48:13.380Z,19.40
2018-05-11T08:50:41.679Z,19.70
2018-05-11T08:53:10.003Z,19.60
2018-05-11T08:55:38.299Z,19.60
2018-05-11T08:58:06.619Z,19.70
2018-05-11T09:00:34.910Z,20.00
2018-05-11T09:03:03.297Z,20.10
2018-05-11T09:05:30.774Z,20.10
2018-05-11T09:07:58.323Z,19.80
2018-05-11T09:10:26.640Z,19.90
2018-05-11T09:12:54.958Z,20.30
2018-05-11T09:15:23.254Z,20.40
2018-05-11T09:17:51.575Z,19.90
2018-05-11T09:20:19.873Z,19.40
2018-05-11T09:22:48.213Z,19.40
2018-05-11T09:25:16.661Z,19.60
2018-05-11T09:27:44.978Z,19.80
2018-05-11T09:30:13.266Z,19.90
2018-05-11T09:32:41.585Z,20.50
2018-05-11T09:35:09.878Z,21.30
2018-05-11T09:37:38.198Z,21.80
2018-05-11T09:40:06.491Z,21.80
2018-05-11T09:42:34.787Z,21.90
2018-05-11T09:45:03.102Z,22.20
2018-05-11T09:47:31.398Z,22.10
2018-05-11T09:49:59.705Z,22.00
2018-05-11T09:52:28.002Z,21.70
2018-05-11T09:54:55.552Z,21.60
2018-05-11T09:57:23.843Z,21.40
2018-05-11T09:59:52.158Z,21.10
2018-05-11T10:02:20.454Z,20.60
2018-05-11T10:04:48.766Z,20.10
2018-05-11T10:07:17.062Z,20.00
2018-05-11T10:09:45.387Z,20.10
2018-05-11T10:12:13.689Z,20.10
2018-05-11T10:14:42.016Z,20.10
2018-05-11T10:17:10.315Z,20.20
2018-05-11T10:19:38.643Z,20.10
2018-05-11T10:22:06.934Z,20.00
2018-05-11T10:24:35.248Z,20.10
2018-05-11T10:27:03.542Z,20.00
2018-05-11T10:29:31.868Z,19.90
2018-05-11T10:32:00.160Z,20.10
2018-05-11T10:34:28.535Z,20.30
2018-05-11T10:36:56.816Z,20.30
2018-05-11T10:39:25.135Z,20.40
2018-05-11T10:41:53.427Z,20.40
2018-05-11T10:44:21.747Z,20.40
2018-05-11T10:46:50.039Z,20.30
2018-05-11T10:49:18.355Z,20.50
2018-05-11T10:51:46.649Z,20.90
2018-05-11T10:54:14.972Z,21.40
2018-05-11T10:56:43.275Z,21.70
2018-05-11T10:59:10.826Z,21.60
2018-05-11T11:01:39.125Z,21.70
2018-05-11T11:04:07.429Z,21.70
2018-05-11T11:06:35.719Z,21.70
2018-05-11T11:09:04.031Z,21.90
2018-05-11T11:11:32.324Z,21.90
2018-05-11T11:14:00.638Z,22.00
2018-05-11T11:16:28.956Z,22.50
2018-05-11T11:18:57.266Z,22.90
2018-05-11T11:21:25.556Z,22.80
2018-05-11T11:23:53.883Z,22.90
2018-05-11T11:26:22.178Z,22.90
2018-05-11T11:28:50.490Z,22.70
2018-05-11T11:31:18.791Z,22.10
2018-05-11T11:33:47.111Z,21.90
2018-05-11T11:36:15.399Z,21.90
2018-05-11T11:38:43.723Z,21.70
2018-05-11T11:41:12.043Z,21.40
2018-05-11T11:43:40.331Z,21.30
2018-05-11T11:46:07.883Z,21.20
2018-05-11T11:48:36.167Z,21.90
2018-05-11T11:51:04.484Z,22.20
2018-05-11T11:53:32.774Z,22.20
2018-05-11T11:56:01.087Z,22.30
2018-05-11T11:58:29.380Z,22.20
2018-05-11T12:00:57.696Z,22.90
2018-05-11T12:03:25.995Z,23.70
2018-05-11T12:05:54.331Z,23.80
2018-05-11T12:08:22.631Z,23.50
2018-05-11T12:10:50.948Z,23.30
2018-05-11T12:13:19.250Z,23.20
2018-05-11T12:15:47.671Z,22.80
2018-05-11T12:18:15.886Z,22.60
2018-05-11T12:20:44.208Z,22.90
2018-05-11T12:23:12.504Z,23.00
2018-05-11T12:25:40.046Z,22.90
2018-05-11T12:28:08.343Z,22.90
2018-05-11T12:30:36.751Z,22.50
2018-05-11T12:33:04.971Z,23.00
2018-05-11T12:35:33.291Z,23.80
2018-05-11T12:38:01.576Z,23.80
2018-05-11T12:40:29.893Z,23.50
2018-05-11T12:42:58.182Z,23.20
2018-05-11T12:45:26.531Z,23.00
2018-05-11T12:47:54.835Z,22.90
2018-05-11T12:50:23.155Z,22.80
2018-05-11T12:52:51.483Z,22.50
2018-05-11T12:55:19.777Z,22.30
2018-05-11T12:57:48.073Z,22.40
2018-05-11T13:00:16.397Z,22.50
2018-05-11T13:02:44.691Z,22.80
2018-05-11T13:05:13.008Z,23.60
2018-05-11T13:07:41.300Z,23.80
2018-05-11T13:10:09.616Z,23.70
2018-05-11T13:12:37.915Z,23.30
2018-05-11T13:15:06.227Z,22.90
2018-05-11T13:17:34.524Z,22.60
2018-05-11T13:20:02.831Z,22.40
2018-05-11T13:22:31.123Z,22.00
2018-05-11T13:24:58.671Z,21.90
2018-05-11T13:27:26.187Z,22.10
2018-05-11T13:29:54.511Z,23.30
2018-05-11T13:32:22.794Z,23.10
2018-05-11T13:34:51.110Z,22.50
2018-05-11T13:37:19.398Z,22.20
2018-05-11T13:39:47.687Z,22.10
2018-05-11T13:42:16.002Z,22.20
2018-05-11T13:44:44.289Z,22.30
2018-05-11T13:47:12.606Z,22.50
2018-05-11T13:49:40.904Z,22.60
2018-05-11T13:52:09.228Z,22.50
2018-05-11T13:54:37.518Z,22.80
2018-05-11T13:57:05.826Z,23.40
2018-05-11T13:59:34.111Z,23.50
2018-05-11T14:02:02.437Z,23.50
2018-05-11T14:04:30.792Z,23.30
2018-05-11T14:06:59.071Z,23.10
2018-05-11T14:09:27.359Z,22.90
2018-05-11T14:11:55.673Z,22.70
2018-05-11T14:14:23.987Z,22.60
2018-05-11T14:16:51.531Z,22.60
2018-05-11T14:19:19.822Z,23.70
2018-05-11T14:21:48.135Z,23.90
2018-05-11T14:24:16.427Z,23.90
2018-05-11T14:26:44.738Z,24.10
2018-05-11T14:29:13.026Z,23.90
2018-05-11T14:31:41.340Z,23.40
2018-05-11T14:34:09.630Z,23.30
2018-05-11T14:36:37.944Z,23.20
2018-05-11T14:39:06.237Z,23.00
2018-05-11T14:41:34.555Z,22.90
2018-05-11T14:44:02.846Z,22.80
2018-05-11T14:46:31.171Z,22.70
2018-05-11T14:48:59.463Z,22.80
2018-05-11T14:51:27.780Z,22.70
2018-05-11T14:53:56.082Z,22.80
2018-05-11T14:56:24.399Z,22.70
2018-05-11T14:58:52.699Z,22.90
2018-05-11T15:01:21.019Z,22.80
2018-05-11T15:03:49.315Z,22.70
2018-05-11T15:06:17.635Z,22.80
2018-05-11T15:08:45.937Z,22.80
2018-05-11T15:11:14.251Z,22.90
2018-05-11T15:13:42.539Z,22.90
2018-05-11T15:16:10.845Z,22.90
2018-05-11T15:18:39.141Z,22.90
2018-05-11T15:21:06.683Z,22.90
2018-05-11T15:23:34.972Z,22.50
2018-05-11T15:26:03.287Z,22.30
2018-05-11T15:28:31.583Z,22.10
2018-05-11T15:30:59.946Z,21.90
2018-05-11T15:33:28.235Z,22.00
2018-05-11T15:35:56.543Z,22.10
2018-05-11T15:38:24.851Z,22.10
2018-05-11T15:40:53.156Z,21.90
2018-05-11T15:43:21.472Z,21.80
2018-05-11T15:45:49.759Z,21.60
2018-05-11T15:48:18.071Z,21.50
2018-05-11T15:50:46.367Z,21.60
2018-05-11T15:53:14.678Z,21.50
2018-05-11T15:55:42.970Z,21.40
2018-05-11T15:58:11.279Z,21.30
2018-05-11T16:00:39.572Z,21.30
2018-05-11T16:03:07.892Z,21.30
2018-05-11T16:05:37.117Z,21.60
2018-05-11T16:08:05.442Z,21.80
2018-05-11T16:10:33.734Z,21.90
2018-05-11T16:13:02.057Z,21.80
2018-05-11T16:15:30.358Z,21.90
2018-05-11T16:17:58.675Z,21.90
2018-05-11T16:20:27.067Z,21.90
2018-05-11T16:22:55.306Z,22.00
2018-05-11T16:25:23.599Z,22.00
2018-05-11T16:27:51.907Z,21.80
2018-05-11T16:30:20.190Z,21.90
2018-05-11T16:32:48.503Z,22.10
2018-05-11T16:35:16.790Z,22.20
2018-05-11T16:37:45.107Z,22.40
2018-05-11T16:40:13.406Z,22.60
2018-05-11T16:42:41.728Z,22.80
2018-05-11T16:45:10.019Z,22.60
2018-05-11T16:47:38.363Z,22.30
2018-05-11T16:50:06.676Z,22.10
2018-05-11T16:52:34.989Z,21.80
2018-05-11T16:55:03.305Z,21.50
2018-05-11T16:57:31.627Z,21.40
2018-05-11T16:59:59.921Z,21.30
2018-05-11T17:02:28.799Z,21.20
2018-05-11T17:04:57.100Z,21.00
2018-05-11T17:07:25.419Z,21.40
2018-05-11T17:09:53.726Z,22.60
2018-05-11T17:12:22.052Z,23.90
2018-05-11T17:14:50.340Z,24.80
2018-05-11T17:17:18.655Z,25.50
2018-05-11T17:19:46.947Z,26.40
2018-05-11T17:22:14.495Z,26.30
2018-05-11T17:24:42.787Z,27.60
2018-05-11T17:27:11.099Z,27.30
2018-05-11T17:29:39.393Z,27.60
2018-05-11T17:32:07.722Z,27.90
2018-05-11T17:34:36.007Z,28.20
2018-05-11T17:37:04.295Z,28.60
2018-05-11T17:39:32.618Z,29.00
2018-05-11T17:42:00.907Z,29.30
2018-05-11T17:44:29.228Z,29.50
2018-05-11T17:46:57.527Z,29.20
2018-05-11T17:49:25.844Z,28.50
2018-05-11T17:51:54.146Z,28.10
2018-05-11T17:54:22.467Z,27.70
2018-05-11T17:56:50.753Z,27.60
2018-05-11T17:59:19.068Z,27.90
2018-05-11T18:01:46.600Z,27.90
2018-05-11T18:04:14.910Z,27.70
2018-05-11T18:06:43.268Z,27.30
2018-05-11T18:09:11.539Z,27.20
2018-05-11T18:11:39.068Z,27.10
2018-05-11T18:14:07.402Z,26.60
2018-05-11T18:16:35.691Z,26.30
2018-05-11T18:19:04.102Z,26.00
2018-05-11T18:21:32.320Z,25.60
2018-05-11T18:24:00.640Z,24.80
2018-05-11T18:26:28.927Z,23.90
2018-05-11T18:28:57.246Z,22.90
2018-05-11T18:31:25.539Z,22.10
2018-05-11T18:33:53.852Z,21.40
2018-05-11T18:36:21.371Z,21.30
2018-05-11T18:38:49.687Z,20.30
2018-05-11T18:41:18.001Z,19.80
2018-05-11T18:43:46.311Z,19.40
2018-05-11T18:46:14.599Z,19.00
2018-05-11T18:48:42.138Z,19.00
2018-05-11T18:51:10.443Z,18.40
2018-05-11T18:53:39.229Z,18.20
2018-05-11T18:56:07.082Z,17.80
2018-05-11T18:58:35.396Z,17.50
2018-05-11T19:01:03.693Z,17.20
2018-05-11T19:03:32.016Z,17.00
2018-05-11T19:06:00.332Z,16.90
2018-05-11T19:08:28.647Z,16.70
2018-05-11T19:10:57.831Z,16.60
2018-05-11T19:13:26.145Z,16.40
2018-05-11T19:15:54.591Z,16.30
2018-05-11T19:18:22.911Z,16.20
2018-05-11T19:20:51.218Z,16.00
2018-05-11T19:23:19.550Z,15.90
2018-05-11T19:25:47.096Z,15.90
2018-05-11T19:28:15.418Z,15.50
2018-05-11T19:30:43.715Z,15.40
2018-05-11T19:33:12.034Z,15.30
2018-05-11T19:35:40.351Z,15.20
2018-05-11T19:38:08.667Z,15.10
2018-05-11T19:40:36.987Z,15.10
2018-05-11T19:43:05.271Z,15.00
2018-05-11T19:45:33.592Z,15.00
2018-05-11T19:48:01.886Z,14.90
2018-05-11T19:50:30.234Z,14.80
2018-05-11T19:52:58.527Z,14.70
2018-05-11T19:55:26.854Z,14.60
2018-05-11T19:57:55.154Z,14.60
2018-05-11T20:00:23.504Z,14.50
2018-05-11T20:02:51.794Z,14.40
2018-05-11T20:05:20.106Z,14.40
2018-05-11T20:07:48.399Z,14.30
2018-05-11T20:10:16.743Z,14.20
2018-05-11T20:12:45.050Z,14.10
2018-05-11T20:15:13.383Z,14.00
2018-05-11T20:17:41.700Z,13.90
2018-05-11T20:20:10.014Z,13.80
2018-05-11T20:22:38.317Z,13.70
2018-05-11T20:25:06.634Z,13.70
2018-05-11T20:27:34.166Z,13.70
2018-05-11T20:30:02.483Z,13.60
2018-05-11T20:32:30.800Z,13.50
2018-05-11T20:34:59.111Z,13.50
2018-05-11T20:37:27.417Z,13.40
2018-05-11T20:39:55.746Z,13.40
2018-05-11T20:42:24.046Z,13.30
2018-05-11T20:44:52.372Z,13.30
2018-05-11T20:47:19.898Z,13.20
2018-05-11T20:49:48.219Z,13.10
2018-05-11T20:52:15.758Z,13.10
2018-05-11T20:54:44.078Z,12.90
2018-05-11T20:57:12.370Z,12.80
2018-05-11T20:59:40.694Z,12.80
2018-05-11T21:02:08.991Z,12.70
2018-05-11T21:04:37.311Z,12.70
2018-05-11T21:07:05.606Z,12.70
2018-05-11T21:09:33.922Z,12.70
2018-05-11T21:12:02.218Z,12.70
2018-05-11T21:14:30.642Z,12.60
2018-05-11T21:16:58.083Z,12.60
2018-05-11T21:19:26.406Z,12.50
2018-05-11T21:21:54.698Z,12.50
2018-05-11T21:24:23.021Z,12.40
2018-05-11T21:26:51.319Z,12.40
2018-05-11T21:29:19.620Z,12.30
2018-05-11T21:31:47.943Z,12.20
2018-05-11T21:34:16.245Z,12.20
2018-05-11T21:36:44.575Z,12.10
2018-05-11T21:39:12.871Z,12.10
2018-05-11T21:41:41.195Z,12.10
2018-05-11T21:44:09.491Z,12.10
2018-05-11T21:46:37.814Z,12.00
2018-05-11T21:49:06.112Z,11.90
2018-05-11T21:51:34.430Z,11.90
2018-05-11T21:54:02.736Z,11.80
2018-05-11T21:56:31.058Z,11.80
2018-05-11T21:58:58.613Z,11.80
2018-05-11T22:01:26.939Z,11.80
2018-05-11T22:03:55.231Z,11.80
2018-05-11T22:06:23.558Z,11.80
2018-05-11T22:08:51.859Z,11.80
2018-05-11T22:11:20.179Z,11.70
2018-05-11T22:13:48.487Z,11.70
2018-05-11T22:16:16.811Z,11.60
2018-05-11T22:18:45.111Z,11.60
2018-05-11T22:21:13.434Z,11.60
2018-05-11T22:23:41.732Z,11.60
2018-05-11T22:26:10.058Z,11.50
2018-05-11T22:28:38.367Z,11.50
2018-05-11T22:31:06.686Z,11.50
2018-05-11T22:33:34.978Z,11.40
2018-05-11T22:36:03.299Z,11.40
2018-05-11T22:38:31.595Z,11.40
2018-05-11T22:40:59.918Z,11.40
2018-05-11T22:43:28.216Z,11.40
2018-05-11T22:45:56.541Z,11.40
2018-05-11T22:48:24.843Z,11.30
2018-05-11T22:50:53.167Z,11.30
2018-05-11T22:53:21.471Z,11.20
2018-05-11T22:55:49.801Z,11.20
2018-05-11T22:58:18.110Z,11.20
2018-05-11T23:00:45.666Z,11.20
2018-05-11T23:03:13.976Z,11.30
2018-05-11T23:05:42.290Z,11.30
2018-05-11T23:08:10.591Z,11.20
2018-05-11T23:10:38.907Z,11.20
2018-05-11T23:13:07.210Z,11.20
2018-05-11T23:15:35.532Z,11.20
2018-05-11T23:18:03.076Z,11.20
2018-05-11T23:20:31.399Z,11.20
2018-05-11T23:22:59.695Z,11.10
2018-05-11T23:25:27.997Z,11.10
2018-05-11T23:27:56.371Z,11.00
2018-05-11T23:30:24.671Z,11.00
2018-05-11T23:32:52.996Z,11.00
2018-05-11T23:35:21.286Z,11.00
2018-05-11T23:37:49.616Z,11.00
2018-05-11T23:40:17.911Z,11.00
2018-05-11T23:42:46.235Z,11.00
2018-05-11T23:45:13.775Z,11.00
2018-05-11T23:47:42.094Z,11.00
2018-05-11T23:50:10.387Z,11.00
2018-05-11T23:52:38.719Z,11.00
2018-05-11T23:55:07.025Z,11.00
2018-05-11T23:57:35.346Z,11.00
